sensor_id;sensor_type;location;lat;lon;timestamp;pressure;altitude;pressure_sealevel;temperature;humidity
37792;BME280;29527;55.766;37.570;2022-12-07T00:01:09;101026.63;;;-6.28;41.51
37792;BME280;29527;55.766;37.570;2022-12-07T00:03:36;101006.38;;;-6.56;41.54
37792;BME280;29527;55.766;37.570;2022-12-07T00:06:03;101049.97;;;-6.39;41.85
37792;BME280;29527;55.766;37.570;2022-12-07T00:08:30;101035.28;;;-6.32;41.52
37792;BME280;29527;55.766;37.570;2022-12-07T00:11:00;101047.38;;;-6.39;41.87
37792;BME280;29527;55.766;37.570;2022-12-07T00:13:26;101058.59;;;-6.46;41.98
37792;BME280;29527;55.766;37.570;2022-12-07T00:15:51;101044.59;;;-6.55;42.15
37792;BME280;29527;55.766;37.570;2022-12-07T00:18:17;101043.81;;;-6.46;42.15
37792;BME280;29527;55.766;37.570;2022-12-07T00:20:42;101029.75;;;-6.68;42.49
37792;BME280;29527;55.766;37.570;2022-12-07T00:23:07;101036.78;;;-6.58;42.59
37792;BME280;29527;55.766;37.570;2022-12-07T00:25:33;101058.38;;;-6.68;42.52
37792;BME280;29527;55.766;37.570;2022-12-07T00:27:58;101046.19;;;-6.71;42.36
37792;BME280;29527;55.766;37.570;2022-12-07T00:30:24;101040.94;;;-6.75;42.89
37792;BME280;29527;55.766;37.570;2022-12-07T00:32:49;101047.91;;;-6.74;42.88
37792;BME280;29527;55.766;37.570;2022-12-07T00:35:15;101043.53;;;-6.75;42.70
37792;BME280;29527;55.766;37.570;2022-12-07T00:37:41;101039.22;;;-6.75;43.03
37792;BME280;29527;55.766;37.570;2022-12-07T00:40:06;101043.50;;;-6.79;42.77
37792;BME280;29527;55.766;37.570;2022-12-07T00:42:32;101049.50;;;-6.86;43.29
37792;BME280;29527;55.766;37.570;2022-12-07T00:44:58;101049.53;;;-6.83;43.09
37792;BME280;29527;55.766;37.570;2022-12-07T00:47:23;101053.88;;;-6.86;43.20
37792;BME280;29527;55.766;37.570;2022-12-07T00:49:48;101049.47;;;-6.92;43.36
37792;BME280;29527;55.766;37.570;2022-12-07T00:52:14;101058.19;;;-6.87;43.36
37792;BME280;29527;55.766;37.570;2022-12-07T00:54:40;101049.44;;;-6.94;43.45
37792;BME280;29527;55.766;37.570;2022-12-07T00:57:06;101049.44;;;-6.95;43.24
37792;BME280;29527;55.766;37.570;2022-12-07T00:59:31;101037.16;;;-7.06;43.15
37792;BME280;29527;55.766;37.570;2022-12-07T01:01:57;101050.28;;;-6.95;43.42
37792;BME280;29527;55.766;37.570;2022-12-07T01:04:22;101045.94;;;-6.97;43.09
37792;BME280;29527;55.766;37.570;2022-12-07T01:06:48;101044.09;;;-7.04;43.38
37792;BME280;29527;55.766;37.570;2022-12-07T01:09:13;101039.78;;;-7.04;43.29
37792;BME280;29527;55.766;37.570;2022-12-07T01:11:38;101017.94;;;-7.17;43.29
37792;BME280;29527;55.766;37.570;2022-12-07T01:14:04;101041.53;;;-7.03;43.21
37792;BME280;29527;55.766;37.570;2022-12-07T01:16:31;101039.00;;;-6.95;42.99
37792;BME280;29527;55.766;37.570;2022-12-07T01:18:57;101039.81;;;-6.99;42.83
37792;BME280;29527;55.766;37.570;2022-12-07T01:21:29;101052.03;;;-6.95;42.94
37792;BME280;29527;55.766;37.570;2022-12-07T01:23:57;101039.03;;;-6.92;42.76
37792;BME280;29527;55.766;37.570;2022-12-07T01:26:24;101036.41;;;-6.95;42.96
37792;BME280;29527;55.766;37.570;2022-12-07T01:28:51;101037.19;;;-7.04;43.12
37792;BME280;29527;55.766;37.570;2022-12-07T01:31:19;101035.56;;;-6.94;42.79
37792;BME280;29527;55.766;37.570;2022-12-07T01:33:47;101031.97;;;-7.02;43.07
37792;BME280;29527;55.766;37.570;2022-12-07T01:36:14;101041.50;;;-7.06;43.30
37792;BME280;29527;55.766;37.570;2022-12-07T01:38:40;101031.09;;;-7.06;42.99
37792;BME280;29527;55.766;37.570;2022-12-07T01:41:06;101038.00;;;-7.08;43.24
37792;BME280;29527;55.766;37.570;2022-12-07T01:43:33;101028.50;;;-7.01;43.16
37792;BME280;29527;55.766;37.570;2022-12-07T01:46:01;100984.94;;;-7.21;43.09
37792;BME280;29527;55.766;37.570;2022-12-07T01:48:38;101016.31;;;-7.07;43.09
37792;BME280;29527;55.766;37.570;2022-12-07T01:51:10;101012.97;;;-6.95;42.66
37792;BME280;29527;55.766;37.570;2022-12-07T01:53:40;101018.91;;;-7.06;42.63
37792;BME280;29527;55.766;37.570;2022-12-07T01:56:10;101000.66;;;-7.12;42.42
37792;BME280;29527;55.766;37.570;2022-12-07T01:58:37;101005.06;;;-7.04;42.85
37792;BME280;29527;55.766;37.570;2022-12-07T02:01:03;101013.75;;;-7.02;42.80
37792;BME280;29527;55.766;37.570;2022-12-07T02:03:40;101010.34;;;-6.97;42.79
37792;BME280;29527;55.766;37.570;2022-12-07T02:06:07;100962.19;;;-7.38;42.93
37792;BME280;29527;55.766;37.570;2022-12-07T02:08:33;100998.88;;;-7.16;42.52
37792;BME280;29527;55.766;37.570;2022-12-07T02:11:00;100994.50;;;-7.20;42.96
37792;BME280;29527;55.766;37.570;2022-12-07T02:13:30;101004.91;;;-7.18;43.25
37792;BME280;29527;55.766;37.570;2022-12-07T02:18:57;101015.38;;;-7.12;43.28
37792;BME280;29527;55.766;37.570;2022-12-07T02:21:47;101004.03;;;-7.17;43.26
37792;BME280;29527;55.766;37.570;2022-12-07T02:30:19;100996.25;;;-7.14;43.31
37792;BME280;29527;55.766;37.570;2022-12-07T02:33:03;101007.66;;;-7.04;43.25
37792;BME280;29527;55.766;37.570;2022-12-07T02:35:35;100997.97;;;-7.18;42.90
37792;BME280;29527;55.766;37.570;2022-12-07T02:43:35;100998.78;;;-7.24;43.49
37792;BME280;29527;55.766;37.570;2022-12-07T02:46:08;100998.69;;;-7.31;43.16
37792;BME280;29527;55.766;37.570;2022-12-07T02:48:54;100999.56;;;-7.31;43.69
37792;BME280;29527;55.766;37.570;2022-12-07T02:51:21;101003.81;;;-7.36;43.50
37792;BME280;29527;55.766;37.570;2022-12-07T02:53:47;100955.78;;;-7.68;43.81
37792;BME280;29527;55.766;37.570;2022-12-07T02:59:13;100997.72;;;-7.38;43.84
37792;BME280;29527;55.766;37.570;2022-12-07T03:15:51;100994.16;;;-7.46;44.31
37792;BME280;29527;55.766;37.570;2022-12-07T03:18:22;101014.94;;;-7.50;44.25
37792;BME280;29527;55.766;37.570;2022-12-07T03:20:51;101004.47;;;-7.56;44.69
37792;BME280;29527;55.766;37.570;2022-12-07T03:23:20;100993.13;;;-7.59;44.76
37792;BME280;29527;55.766;37.570;2022-12-07T03:25:49;100960.72;;;-7.86;44.99
37792;BME280;29527;55.766;37.570;2022-12-07T03:28:19;100999.09;;;-7.68;45.18
37792;BME280;29527;55.766;37.570;2022-12-07T03:30:59;100996.50;;;-7.70;45.29
37792;BME280;29527;55.766;37.570;2022-12-07T03:33:42;100986.88;;;-7.75;44.90
37792;BME280;29527;55.766;37.570;2022-12-07T03:38:58;100997.38;;;-7.68;45.47
37792;BME280;29527;55.766;37.570;2022-12-07T03:41:31;100994.59;;;-7.80;45.43
37792;BME280;29527;55.766;37.570;2022-12-07T03:43:58;100999.84;;;-7.77;45.73
37792;BME280;29527;55.766;37.570;2022-12-07T03:46:44;100993.75;;;-7.81;46.13
37792;BME280;29527;55.766;37.570;2022-12-07T03:49:23;100992.81;;;-7.84;46.28
37792;BME280;29527;55.766;37.570;2022-12-07T03:52:00;100994.53;;;-7.86;45.90
37792;BME280;29527;55.766;37.570;2022-12-07T03:54:46;100991.88;;;-7.88;46.04
37792;BME280;29527;55.766;37.570;2022-12-07T03:57:13;100969.16;;;-8.04;46.38
37792;BME280;29527;55.766;37.570;2022-12-07T03:59:39;100997.91;;;-7.94;46.15
37792;BME280;29527;55.766;37.570;2022-12-07T04:02:07;100979.63;;;-7.98;46.59
37792;BME280;29527;55.766;37.570;2022-12-07T04:04:33;100987.38;;;-8.00;46.09
37792;BME280;29527;55.766;37.570;2022-12-07T04:06:59;100976.13;;;-7.99;46.52
37792;BME280;29527;55.766;37.570;2022-12-07T04:09:25;100978.81;;;-7.96;46.74
37792;BME280;29527;55.766;37.570;2022-12-07T04:11:50;100981.41;;;-7.96;46.63
37792;BME280;29527;55.766;37.570;2022-12-07T04:14:16;100983.03;;;-8.01;46.88
37792;BME280;29527;55.766;37.570;2022-12-07T04:16:48;100975.25;;;-8.02;46.78
37792;BME280;29527;55.766;37.570;2022-12-07T04:19:15;100987.38;;;-8.00;47.14
37792;BME280;29527;55.766;37.570;2022-12-07T04:21:41;100974.53;;;-7.90;46.64
37792;BME280;29527;55.766;37.570;2022-12-07T04:24:06;100955.16;;;-8.13;47.23
37792;BME280;29527;55.766;37.570;2022-12-07T04:26:32;100985.63;;;-8.01;47.13
37792;BME280;29527;55.766;37.570;2022-12-07T04:28:58;100980.59;;;-7.90;47.00
37792;BME280;29527;55.766;37.570;2022-12-07T04:31:23;100984.91;;;-7.92;47.35
37792;BME280;29527;55.766;37.570;2022-12-07T04:33:49;100958.69;;;-8.09;47.67
37792;BME280;29527;55.766;37.570;2022-12-07T04:36:14;100982.31;;;-7.94;47.41
37792;BME280;29527;55.766;37.570;2022-12-07T04:38:40;100977.84;;;-8.01;47.72
37792;BME280;29527;55.766;37.570;2022-12-07T04:41:06;100974.31;;;-8.06;48.12
37792;BME280;29527;55.766;37.570;2022-12-07T04:43:33;100969.13;;;-8.06;48.08
37792;BME280;29527;55.766;37.570;2022-12-07T04:45:58;100967.31;;;-8.10;48.56
37792;BME280;29527;55.766;37.570;2022-12-07T04:48:24;100975.94;;;-8.13;48.50
37792;BME280;29527;55.766;37.570;2022-12-07T04:50:49;100969.81;;;-8.18;48.95
37792;BME280;29527;55.766;37.570;2022-12-07T04:53:15;100968.88;;;-8.22;48.69
37792;BME280;29527;55.766;37.570;2022-12-07T04:55:41;100978.50;;;-8.17;49.04
37792;BME280;29527;55.766;37.570;2022-12-07T04:58:07;100963.72;;;-8.20;49.29
37792;BME280;29527;55.766;37.570;2022-12-07T05:00:32;100980.19;;;-8.19;48.97
37792;BME280;29527;55.766;37.570;2022-12-07T05:02:58;100976.06;;;-8.07;49.04
37792;BME280;29527;55.766;37.570;2022-12-07T05:05:23;100984.53;;;-8.17;49.36
37792;BME280;29527;55.766;37.570;2022-12-07T05:07:49;100980.28;;;-8.13;49.55
37792;BME280;29527;55.766;37.570;2022-12-07T05:10:15;100979.50;;;-8.08;49.18
37792;BME280;29527;55.766;37.570;2022-12-07T05:12:40;100983.72;;;-8.14;49.60
37792;BME280;29527;55.766;37.570;2022-12-07T05:15:06;100975.09;;;-8.13;49.61
37792;BME280;29527;55.766;37.570;2022-12-07T05:17:31;100978.50;;;-8.16;50.03
37792;BME280;29527;55.766;37.570;2022-12-07T05:19:57;100990.63;;;-8.16;49.88
37792;BME280;29527;55.766;37.570;2022-12-07T05:22:22;100964.75;;;-8.07;49.58
37792;BME280;29527;55.766;37.570;2022-12-07T05:24:48;100973.50;;;-8.03;49.97
37792;BME280;29527;55.766;37.570;2022-12-07T05:27:13;100975.13;;;-8.10;50.22
37792;BME280;29527;55.766;37.570;2022-12-07T05:29:39;100985.56;;;-8.07;50.32
37792;BME280;29527;55.766;37.570;2022-12-07T05:32:04;100980.41;;;-8.04;49.97
37792;BME280;29527;55.766;37.570;2022-12-07T05:34:30;100974.31;;;-8.08;50.48
37792;BME280;29527;55.766;37.570;2022-12-07T05:36:55;100989.91;;;-8.08;50.30
37792;BME280;29527;55.766;37.570;2022-12-07T05:39:20;100976.88;;;-8.09;50.47
37792;BME280;29527;55.766;37.570;2022-12-07T05:41:46;100955.78;;;-8.29;51.03
37792;BME280;29527;55.766;37.570;2022-12-07T05:44:30;100981.19;;;-8.11;51.24
37792;BME280;29527;55.766;37.570;2022-12-07T05:46:56;100971.75;;;-8.03;50.65
37792;BME280;29527;55.766;37.570;2022-12-07T05:49:21;100980.41;;;-8.04;51.15
37792;BME280;29527;55.766;37.570;2022-12-07T05:51:47;100971.66;;;-8.09;51.54
37792;BME280;29527;55.766;37.570;2022-12-07T05:54:12;100978.81;;;-7.96;50.71
37792;BME280;29527;55.766;37.570;2022-12-07T05:56:38;100963.19;;;-7.97;50.78
37792;BME280;29527;55.766;37.570;2022-12-07T05:59:04;100964.72;;;-8.09;51.01
37792;BME280;29527;55.766;37.570;2022-12-07T06:01:57;100970.13;;;-7.96;51.06
37792;BME280;29527;55.766;37.570;2022-12-07T06:04:23;100977.34;;;-7.72;49.82
37792;BME280;29527;55.766;37.570;2022-12-07T06:06:50;100958.06;;;-7.93;50.39
37792;BME280;29527;55.766;37.570;2022-12-07T06:09:16;100966.69;;;-7.94;50.58
37792;BME280;29527;55.766;37.570;2022-12-07T06:11:43;100974.44;;;-7.97;51.15
37792;BME280;29527;55.766;37.570;2022-12-07T06:14:27;100959.75;;;-7.95;51.06
37792;BME280;29527;55.766;37.570;2022-12-07T06:16:53;100972.69;;;-7.99;51.55
37792;BME280;29527;55.766;37.570;2022-12-07T06:19:19;100966.81;;;-7.84;51.23
37792;BME280;29527;55.766;37.570;2022-12-07T06:21:44;100973.75;;;-7.83;51.37
37792;BME280;29527;55.766;37.570;2022-12-07T06:24:11;100976.28;;;-7.88;51.41
37792;BME280;29527;55.766;37.570;2022-12-07T06:26:37;100966.88;;;-7.78;51.53
37792;BME280;29527;55.766;37.570;2022-12-07T06:29:03;100974.69;;;-7.78;51.64
37792;BME280;29527;55.766;37.570;2022-12-07T06:31:28;100957.34;;;-7.79;51.52
37792;BME280;29527;55.766;37.570;2022-12-07T06:34:05;100961.16;;;-7.49;51.16
37792;BME280;29527;55.766;37.570;2022-12-07T06:36:31;100962.88;;;-7.51;51.10
37792;BME280;29527;55.766;37.570;2022-12-07T06:38:57;100938.25;;;-7.04;51.31
37792;BME280;29527;55.766;37.570;2022-12-07T06:41:22;100956.78;;;-4.51;47.11
37792;BME280;29527;55.766;37.570;2022-12-07T06:43:48;100961.31;;;-1.69;41.42
37792;BME280;29527;55.766;37.570;2022-12-07T06:46:15;100947.69;;;0.74;36.99
37792;BME280;29527;55.766;37.570;2022-12-07T06:48:41;100943.69;;;2.35;34.07
37792;BME280;29527;55.766;37.570;2022-12-07T06:51:07;100946.81;;;3.37;32.36
37792;BME280;29527;55.766;37.570;2022-12-07T06:53:33;100958.41;;;2.46;32.37
37792;BME280;29527;55.766;37.570;2022-12-07T06:55:58;100946.56;;;1.60;33.78
37792;BME280;29527;55.766;37.570;2022-12-07T06:58:24;100949.75;;;1.38;34.12
37792;BME280;29527;55.766;37.570;2022-12-07T07:00:49;100953.94;;;2.14;33.79
37792;BME280;29527;55.766;37.570;2022-12-07T07:03:16;100937.59;;;3.49;31.47
37792;BME280;29527;55.766;37.570;2022-12-07T07:05:42;100946.09;;;4.84;29.69
37792;BME280;29527;55.766;37.570;2022-12-07T07:08:08;100946.44;;;5.64;28.00
37792;BME280;29527;55.766;37.570;2022-12-07T07:10:34;100963.56;;;6.41;26.29
37792;BME280;29527;55.766;37.570;2022-12-07T07:13:00;100951.91;;;6.63;26.01
37792;BME280;29527;55.766;37.570;2022-12-07T07:15:25;100949.63;;;6.74;25.44
37792;BME280;29527;55.766;37.570;2022-12-07T07:17:51;100961.75;;;6.41;25.36
37792;BME280;29527;55.766;37.570;2022-12-07T07:20:16;100949.66;;;5.27;26.36
37792;BME280;29527;55.766;37.570;2022-12-07T07:22:42;100954.13;;;3.82;28.36
37792;BME280;29527;55.766;37.570;2022-12-07T07:25:07;100954.09;;;2.41;30.17
37792;BME280;29527;55.766;37.570;2022-12-07T07:27:33;100949.50;;;1.11;32.24
37792;BME280;29527;55.766;37.570;2022-12-07T07:29:58;100954.19;;;0.11;33.69
37792;BME280;29527;55.766;37.570;2022-12-07T07:32:24;100951.91;;;-1.17;35.81
37792;BME280;29527;55.766;37.570;2022-12-07T07:34:49;100959.09;;;-2.08;37.58
37792;BME280;29527;55.766;37.570;2022-12-07T07:37:15;100922.22;;;-2.93;38.77
37792;BME280;29527;55.766;37.570;2022-12-07T07:39:40;100928.69;;;-3.54;39.87
37792;BME280;29527;55.766;37.570;2022-12-07T07:42:06;100942.75;;;-3.93;41.04
37792;BME280;29527;55.766;37.570;2022-12-07T07:44:33;100935.84;;;-4.22;42.06
37792;BME280;29527;55.766;37.570;2022-12-07T07:46:59;100927.16;;;-4.36;42.04
37792;BME280;29527;55.766;37.570;2022-12-07T07:49:25;100928.94;;;-4.57;42.91
37792;BME280;29527;55.766;37.570;2022-12-07T07:51:51;100948.94;;;-4.76;43.52
37792;BME280;29527;55.766;37.570;2022-12-07T07:54:16;100928.91;;;-5.03;43.22
37792;BME280;29527;55.766;37.570;2022-12-07T07:56:42;100924.53;;;-5.12;44.10
37792;BME280;29527;55.766;37.570;2022-12-07T07:59:07;100900.13;;;-5.27;44.36
37792;BME280;29527;55.766;37.570;2022-12-07T08:01:33;100941.94;;;-5.02;44.10
37792;BME280;29527;55.766;37.570;2022-12-07T08:03:59;100935.00;;;-4.97;44.03
37792;BME280;29527;55.766;37.570;2022-12-07T08:06:24;100937.56;;;-5.14;44.62
37792;BME280;29527;55.766;37.570;2022-12-07T08:08:50;100898.41;;;-5.26;44.18
37792;BME280;29527;55.766;37.570;2022-12-07T08:11:16;100935.84;;;-4.98;43.79
37792;BME280;29527;55.766;37.570;2022-12-07T08:13:41;100926.28;;;-4.97;44.04
37792;BME280;29527;55.766;37.570;2022-12-07T08:16:09;100923.66;;;-4.99;44.19
37792;BME280;29527;55.766;37.570;2022-12-07T08:18:35;100941.94;;;-5.14;44.23
37792;BME280;29527;55.766;37.570;2022-12-07T08:21:02;100933.19;;;-5.26;44.79
37792;BME280;29527;55.766;37.570;2022-12-07T08:23:28;100924.50;;;-5.26;44.95
37792;BME280;29527;55.766;37.570;2022-12-07T08:25:54;100924.53;;;-5.15;44.43
37792;BME280;29527;55.766;37.570;2022-12-07T08:28:19;100919.31;;;-5.15;44.80
37792;BME280;29527;55.766;37.570;2022-12-07T08:30:45;100921.03;;;-5.19;44.95
37792;BME280;29527;55.766;37.570;2022-12-07T08:33:10;100914.97;;;-5.10;44.74
37792;BME280;29527;55.766;37.570;2022-12-07T08:35:36;100922.81;;;-5.07;44.39
37792;BME280;29527;55.766;37.570;2022-12-07T08:38:02;100929.75;;;-5.03;44.06
37792;BME280;29527;55.766;37.570;2022-12-07T08:40:29;100929.75;;;-5.23;44.97
37792;BME280;29527;55.766;37.570;2022-12-07T08:42:54;100954.09;;;-5.23;44.78
37792;BME280;29527;55.766;37.570;2022-12-07T08:45:21;100921.88;;;-5.25;44.55
37792;BME280;29527;55.766;37.570;2022-12-07T08:50:16;100921.81;;;-5.54;45.32
37792;BME280;29527;55.766;37.570;2022-12-07T08:52:42;100907.91;;;-5.55;45.65
37792;BME280;29527;55.766;37.570;2022-12-07T08:55:10;100900.94;;;-5.56;45.61
37792;BME280;29527;55.766;37.570;2022-12-07T08:57:36;100907.88;;;-5.59;45.21
37792;BME280;29527;55.766;37.570;2022-12-07T09:00:03;100907.00;;;-5.65;45.50
37792;BME280;29527;55.766;37.570;2022-12-07T09:02:31;100890.44;;;-5.68;45.72
37792;BME280;29527;55.766;37.570;2022-12-07T09:04:56;100897.38;;;-5.70;46.04
37792;BME280;29527;55.766;37.570;2022-12-07T09:07:22;100893.94;;;-5.71;45.68
37792;BME280;29527;55.766;37.570;2022-12-07T09:09:48;100906.97;;;-5.68;45.66
37792;BME280;29527;55.766;37.570;2022-12-07T09:12:13;100892.25;;;-5.52;45.42
37792;BME280;29527;55.766;37.570;2022-12-07T09:14:39;100906.13;;;-5.64;45.35
37792;BME280;29527;55.766;37.570;2022-12-07T09:17:09;100866.09;;;-5.72;45.31
37792;BME280;29527;55.766;37.570;2022-12-07T09:19:35;100898.28;;;-5.70;45.09
37792;BME280;29527;55.766;37.570;2022-12-07T09:22:01;100886.09;;;-5.69;45.24
37792;BME280;29527;55.766;37.570;2022-12-07T09:24:26;100882.63;;;-5.76;45.23
37792;BME280;29527;55.766;37.570;2022-12-07T09:26:51;100880.88;;;-5.71;45.15
37792;BME280;29527;55.766;37.570;2022-12-07T09:29:17;100885.16;;;-5.82;45.58
37792;BME280;29527;55.766;37.570;2022-12-07T09:31:42;100855.59;;;-5.87;45.35
37792;BME280;29527;55.766;37.570;2022-12-07T09:34:08;100869.53;;;-5.82;45.55
37792;BME280;29527;55.766;37.570;2022-12-07T09:36:34;100873.84;;;-5.87;45.91
37792;BME280;29527;55.766;37.570;2022-12-07T09:38:59;100853.84;;;-5.88;45.68
37792;BME280;29527;55.766;37.570;2022-12-07T09:41:27;100857.34;;;-5.89;45.89
37792;BME280;29527;55.766;37.570;2022-12-07T09:43:58;100852.09;;;-5.91;45.86
37792;BME280;29527;55.766;37.570;2022-12-07T09:46:28;100861.72;;;-5.78;45.22
37792;BME280;29527;55.766;37.570;2022-12-07T09:48:56;100859.09;;;-5.82;45.33
37792;BME280;29527;55.766;37.570;2022-12-07T09:51:23;100869.56;;;-5.78;45.37
37792;BME280;29527;55.766;37.570;2022-12-07T09:53:51;100867.78;;;-5.86;45.12
37792;BME280;29527;55.766;37.570;2022-12-07T09:56:17;100854.72;;;-5.91;45.01
37792;BME280;29527;55.766;37.570;2022-12-07T09:58:44;100849.50;;;-5.89;45.03
37792;BME280;29527;55.766;37.570;2022-12-07T10:03:42;100843.47;;;-5.68;44.98
37792;BME280;29527;55.766;37.570;2022-12-07T10:06:12;100867.78;;;-5.83;45.20
37792;BME280;29527;55.766;37.570;2022-12-07T10:08:38;100853.03;;;-5.83;44.77
37792;BME280;29527;55.766;37.570;2022-12-07T10:11:03;100838.22;;;-5.79;44.46
37792;BME280;29527;55.766;37.570;2022-12-07T10:13:47;100829.53;;;-5.83;44.85
37792;BME280;29527;55.766;37.570;2022-12-07T10:16:39;100830.41;;;-5.87;45.08
37792;BME280;29527;55.766;37.570;2022-12-07T10:24:27;100828.72;;;-5.66;44.39
37792;BME280;29527;55.766;37.570;2022-12-07T10:26:53;100831.31;;;-5.68;44.66
37792;BME280;29527;55.766;37.570;2022-12-07T10:29:34;100819.13;;;-5.72;45.04
37792;BME280;29527;55.766;37.570;2022-12-07T10:34:40;100828.72;;;-5.55;44.10
37792;BME280;29527;55.766;37.570;2022-12-07T10:37:26;100834.81;;;-5.63;44.20
37792;BME280;29527;55.766;37.570;2022-12-07T10:39:55;100822.63;;;-5.73;44.52
37792;BME280;29527;55.766;37.570;2022-12-07T10:42:26;100823.50;;;-5.65;44.63
37792;BME280;29527;55.766;37.570;2022-12-07T10:45:24;100812.22;;;-5.65;44.18
37792;BME280;29527;55.766;37.570;2022-12-07T10:56:05;100826.91;;;-5.81;44.29
37792;BME280;29527;55.766;37.570;2022-12-07T11:01:34;100805.19;;;-5.89;44.95
37792;BME280;29527;55.766;37.570;2022-12-07T11:15:15;100786.03;;;-6.09;45.64
37792;BME280;29527;55.766;37.570;2022-12-07T11:17:55;100786.03;;;-6.07;45.99
37792;BME280;29527;55.766;37.570;2022-12-07T11:23:20;100796.47;;;-5.92;45.70
37792;BME280;29527;55.766;37.570;2022-12-07T11:26:02;100782.53;;;-6.09;46.05
37792;BME280;29527;55.766;37.570;2022-12-07T11:31:38;100793.03;;;-5.80;45.12
37792;BME280;29527;55.766;37.570;2022-12-07T11:34:13;100779.09;;;-6.02;45.70
37792;BME280;29527;55.766;37.570;2022-12-07T11:36:44;100780.78;;;-6.16;45.94
37792;BME280;29527;55.766;37.570;2022-12-07T11:41:59;100783.38;;;-6.26;46.24
37792;BME280;29527;55.766;37.570;2022-12-07T11:44:34;100767.69;;;-6.32;46.24
37792;BME280;29527;55.766;37.570;2022-12-07T11:47:10;100785.09;;;-6.29;46.27
37792;BME280;29527;55.766;37.570;2022-12-07T11:52:06;100763.31;;;-6.42;46.34
37792;BME280;29527;55.766;37.570;2022-12-07T11:54:41;100760.75;;;-6.30;46.29
37792;BME280;29527;55.766;37.570;2022-12-07T11:57:14;100756.34;;;-6.50;46.92
37792;BME280;29527;55.766;37.570;2022-12-07T11:59:52;100758.03;;;-6.52;47.24
37792;BME280;29527;55.766;37.570;2022-12-07T12:02:35;100751.16;;;-6.40;46.55
37792;BME280;29527;55.766;37.570;2022-12-07T12:07:36;100750.19;;;-6.63;46.93
37792;BME280;29527;55.766;37.570;2022-12-07T12:10:06;100742.28;;;-6.80;47.75
37792;BME280;29527;55.766;37.570;2022-12-07T12:20:57;100709.22;;;-6.96;47.56
37792;BME280;29527;55.766;37.570;2022-12-07T12:23:33;100745.75;;;-6.81;47.94
37792;BME280;29527;55.766;37.570;2022-12-07T12:26:02;100749.16;;;-6.89;48.12
37792;BME280;29527;55.766;37.570;2022-12-07T12:33:48;100738.75;;;-6.94;48.13
37792;BME280;29527;55.766;37.570;2022-12-07T12:54:35;100732.44;;;-7.24;49.90
37792;BME280;29527;55.766;37.570;2022-12-07T12:57:15;100753.25;;;-7.29;50.15
37792;BME280;29527;55.766;37.570;2022-12-07T13:02:47;100743.84;;;-7.10;49.70
37792;BME280;29527;55.766;37.570;2022-12-07T13:12:56;100737.50;;;-7.46;50.83
37792;BME280;29527;55.766;37.570;2022-12-07T13:15:47;100734.03;;;-7.43;50.64
37792;BME280;29527;55.766;37.570;2022-12-07T13:20:56;100747.00;;;-7.53;51.16
37792;BME280;29527;55.766;37.570;2022-12-07T13:26:38;100711.38;;;-7.58;51.47
37792;BME280;29527;55.766;37.570;2022-12-07T13:31:44;100724.34;;;-7.65;51.86
37792;BME280;29527;55.766;37.570;2022-12-07T13:37:09;100715.72;;;-7.59;51.48
37792;BME280;29527;55.766;37.570;2022-12-07T13:39:45;100729.53;;;-7.63;51.55
37792;BME280;29527;55.766;37.570;2022-12-07T13:42:24;100720.09;;;-7.55;51.68
37792;BME280;29527;55.766;37.570;2022-12-07T13:44:51;100702.69;;;-7.62;51.17
37792;BME280;29527;55.766;37.570;2022-12-07T13:47:31;100723.66;;;-7.45;51.28
37792;BME280;29527;55.766;37.570;2022-12-07T13:49:59;100719.97;;;-7.67;51.63
37792;BME280;29527;55.766;37.570;2022-12-07T13:52:27;100738.19;;;-7.69;51.80
37792;BME280;29527;55.766;37.570;2022-12-07T13:57:30;100712.94;;;-7.79;52.56
37792;BME280;29527;55.766;37.570;2022-12-07T13:59:57;100712.97;;;-7.73;52.28
37792;BME280;29527;55.766;37.570;2022-12-07T14:02:31;100708.59;;;-7.80;52.70
37792;BME280;29527;55.766;37.570;2022-12-07T14:05:25;100720.88;;;-7.67;52.22
37792;BME280;29527;55.766;37.570;2022-12-07T14:12:50;100724.19;;;-7.80;52.51
37792;BME280;29527;55.766;37.570;2022-12-07T14:15:23;100729.34;;;-7.86;52.87
37792;BME280;29527;55.766;37.570;2022-12-07T14:17:52;100719.78;;;-7.89;52.80
37792;BME280;29527;55.766;37.570;2022-12-07T14:20:38;100739.78;;;-7.83;52.94
37792;BME280;29527;55.766;37.570;2022-12-07T14:23:06;100718.84;;;-7.97;53.04
37792;BME280;29527;55.766;37.570;2022-12-07T14:25:47;100714.50;;;-7.97;52.85
37792;BME280;29527;55.766;37.570;2022-12-07T14:28:28;100698.28;;;-7.71;52.24
37792;BME280;29527;55.766;37.570;2022-12-07T14:30:54;100720.63;;;-7.91;52.87
37792;BME280;29527;55.766;37.570;2022-12-07T14:33:20;100689.22;;;-8.12;53.12
37792;BME280;29527;55.766;37.570;2022-12-07T14:35:46;100705.91;;;-7.91;53.19
37792;BME280;29527;55.766;37.570;2022-12-07T14:38:11;100697.91;;;-8.11;53.31
37792;BME280;29527;55.766;37.570;2022-12-07T14:40:38;100717.81;;;-8.12;53.41
37792;BME280;29527;55.766;37.570;2022-12-07T14:43:12;100710.13;;;-8.01;53.51
37792;BME280;29527;55.766;37.570;2022-12-07T14:45:41;100709.34;;;-7.94;53.26
37792;BME280;29527;55.766;37.570;2022-12-07T14:48:14;100704.06;;;-8.00;53.41
37792;BME280;29527;55.766;37.570;2022-12-07T14:50:47;100715.25;;;-8.09;53.57
37792;BME280;29527;55.766;37.570;2022-12-07T14:53:17;100711.84;;;-8.03;53.10
37792;BME280;29527;55.766;37.570;2022-12-07T14:55:43;100660.63;;;-8.16;53.19
37792;BME280;29527;55.766;37.570;2022-12-07T14:58:14;100712.72;;;-8.05;53.53
37792;BME280;29527;55.766;37.570;2022-12-07T15:00:39;100703.13;;;-8.08;53.54
37792;BME280;29527;55.766;37.570;2022-12-07T15:03:05;100697.13;;;-8.05;53.48
37792;BME280;29527;55.766;37.570;2022-12-07T15:05:30;100705.72;;;-8.11;53.94
37792;BME280;29527;55.766;37.570;2022-12-07T15:07:56;100703.97;;;-8.12;53.63
37792;BME280;29527;55.766;37.570;2022-12-07T15:10:27;100707.38;;;-8.18;54.18
37792;BME280;29527;55.766;37.570;2022-12-07T15:13:02;100700.50;;;-8.13;54.12